createdAt,value
2023-05-09T00:01:31.575Z,14.18
2023-05-09T00:03:59.280Z,13.00
2023-05-09T00:06:27.556Z,12.23
2023-05-09T00:08:55.800Z,13.40
2023-05-09T00:11:22.404Z,12.90
2023-05-09T00:13:50.576Z,13.68
2023-05-09T00:16:18.642Z,13.32
2023-05-09T00:18:45.239Z,13.15
2023-05-09T00:21:11.918Z,13.77
2023-05-09T00:23:38.835Z,12.23
2023-05-09T00:26:06.264Z,14.55
2023-05-09T00:28:33.089Z,15.35
2023-05-09T00:30:59.776Z,13.52
2023-05-09T00:33:26.878Z,14.63
2023-05-09T00:35:54.648Z,13.77
2023-05-09T00:38:22.942Z,12.95
2023-05-09T00:40:49.782Z,12.82
2023-05-09T00:43:16.776Z,12.75
2023-05-09T00:45:46.886Z,13.07
2023-05-09T00:48:15.241Z,13.25
2023-05-09T00:50:42.192Z,13.02
2023-05-09T00:53:09.492Z,13.57
2023-05-09T00:55:36.534Z,14.10
2023-05-09T00:58:03.860Z,13.68
2023-05-09T01:00:30.406Z,14.75
2023-05-09T01:02:57.216Z,14.55
2023-05-09T01:05:34.532Z,15.20
2023-05-09T01:08:10.503Z,17.25
2023-05-09T01:10:48.901Z,16.13
2023-05-09T01:13:32.112Z,14.57
2023-05-09T01:16:08.684Z,14.20
2023-05-09T01:18:44.800Z,13.98
2023-05-09T01:21:15.900Z,13.43
2023-05-09T01:23:43.917Z,14.20
2023-05-09T01:26:26.122Z,14.02
2023-05-09T01:29:11.770Z,13.93
2023-05-09T01:31:41.194Z,16.55
2023-05-09T01:34:09.826Z,14.95
2023-05-09T01:36:38.036Z,16.70
2023-05-09T01:39:05.936Z,15.20
2023-05-09T01:41:36.389Z,16.00
2023-05-09T01:44:07.715Z,12.85
2023-05-09T01:46:35.342Z,15.80
2023-05-09T01:49:03.525Z,15.00
2023-05-09T01:51:32.639Z,14.40
2023-05-09T01:54:01.232Z,13.82
2023-05-09T01:56:28.082Z,14.63
2023-05-09T01:58:56.464Z,14.57
2023-05-09T02:01:24.375Z,16.00
2023-05-09T02:03:54.711Z,16.15
2023-05-09T02:06:24.354Z,14.75
2023-05-09T02:08:51.450Z,13.73
2023-05-09T02:11:18.551Z,15.73
2023-05-09T02:13:45.234Z,16.50
2023-05-09T02:16:12.194Z,16.35
2023-05-09T02:18:38.854Z,18.02
2023-05-09T02:21:06.434Z,17.25
2023-05-09T02:23:33.016Z,18.60
2023-05-09T02:25:59.827Z,16.30
2023-05-09T02:28:28.324Z,18.80
2023-05-09T02:30:58.574Z,21.48
2023-05-09T02:33:27.174Z,18.95
2023-05-09T02:35:55.313Z,20.48
2023-05-09T02:38:22.277Z,18.67
2023-05-09T02:40:52.417Z,18.88
2023-05-09T02:43:19.396Z,19.17
2023-05-09T02:45:45.966Z,18.85
2023-05-09T02:48:12.569Z,18.55
2023-05-09T02:50:41.905Z,19.63
2023-05-09T02:53:08.698Z,21.35
2023-05-09T02:55:35.430Z,20.73
2023-05-09T02:58:12.775Z,20.55
2023-05-09T03:00:42.587Z,21.52
2023-05-09T03:03:09.651Z,24.60
2023-05-09T03:05:37.012Z,21.77
2023-05-09T03:08:03.678Z,21.85
2023-05-09T03:10:30.611Z,24.25
2023-05-09T03:12:57.415Z,23.90
2023-05-09T03:15:24.170Z,22.23
2023-05-09T03:17:51.580Z,22.00
2023-05-09T03:20:18.884Z,21.13
2023-05-09T03:22:45.462Z,133.02
2023-05-09T03:25:12.637Z,273.50
2023-05-09T03:27:39.433Z,304.45
2023-05-09T03:30:09.953Z,243.82
2023-05-09T03:32:36.865Z,237.13
2023-05-09T03:35:04.061Z,144.73
2023-05-09T03:37:32.314Z,82.78
2023-05-09T03:39:58.897Z,172.48
2023-05-09T03:42:26.553Z,87.95
2023-05-09T03:44:59.793Z,50.35
2023-05-09T03:47:26.493Z,30.67
2023-05-09T03:49:53.650Z,61.47
2023-05-09T03:52:22.745Z,37.63
2023-05-09T03:54:49.419Z,33.40
2023-05-09T03:57:17.610Z,33.42
2023-05-09T03:59:45.737Z,35.55
2023-05-09T04:02:13.917Z,29.15
2023-05-09T04:04:40.680Z,21.58
2023-05-09T04:07:08.859Z,22.35
2023-05-09T04:09:35.586Z,20.15
2023-05-09T04:12:02.135Z,30.08
2023-05-09T04:14:28.661Z,23.77
2023-05-09T04:16:55.355Z,23.67
2023-05-09T04:19:21.903Z,18.60
2023-05-09T04:21:48.747Z,40.10
2023-05-09T04:24:15.265Z,16.80
2023-05-09T04:26:44.636Z,16.52
2023-05-09T04:29:15.127Z,16.02
2023-05-09T04:31:46.834Z,15.20
2023-05-09T04:34:13.857Z,16.20
2023-05-09T04:36:40.599Z,15.80
2023-05-09T04:39:08.314Z,15.85
2023-05-09T04:41:36.190Z,16.13
2023-05-09T04:44:03.299Z,16.42
2023-05-09T04:46:29.883Z,14.23
2023-05-09T04:48:57.259Z,14.75
2023-05-09T04:51:23.799Z,15.85
2023-05-09T04:53:51.631Z,16.38
2023-05-09T04:56:21.665Z,15.63
2023-05-09T04:58:48.986Z,16.30
2023-05-09T05:01:16.651Z,17.50
2023-05-09T05:03:44.299Z,14.15
2023-05-09T05:06:11.059Z,14.63
2023-05-09T05:08:40.336Z,16.38
2023-05-09T05:11:06.949Z,14.80
2023-05-09T05:13:34.096Z,13.85
2023-05-09T05:16:01.559Z,13.82
2023-05-09T05:18:28.163Z,12.40
2023-05-09T05:20:54.708Z,13.25
2023-05-09T05:23:22.357Z,13.90
2023-05-09T05:25:52.758Z,14.07
2023-05-09T05:28:19.684Z,11.77
2023-05-09T05:30:47.018Z,33.55
2023-05-09T05:33:13.984Z,12.65
2023-05-09T05:35:40.668Z,16.30
2023-05-09T05:38:07.249Z,11.45
2023-05-09T05:40:34.372Z,12.43
2023-05-09T05:43:03.876Z,11.38
2023-05-09T05:45:32.535Z,12.18
2023-05-09T05:48:05.388Z,11.77
2023-05-09T05:50:32.474Z,10.98
2023-05-09T05:52:59.529Z,10.55
2023-05-09T05:55:26.285Z,11.55
2023-05-09T05:57:52.980Z,10.10
2023-05-09T06:00:20.607Z,12.68
2023-05-09T06:02:53.326Z,11.07
2023-05-09T06:05:25.262Z,10.48
2023-05-09T06:07:52.325Z,11.32
2023-05-09T06:10:18.879Z,11.77
2023-05-09T06:12:45.624Z,9.40
2023-05-09T06:15:12.613Z,11.55
2023-05-09T06:17:43.565Z,9.85
2023-05-09T06:20:10.616Z,10.57
2023-05-09T06:22:37.139Z,9.23
2023-05-09T06:25:03.972Z,10.15
2023-05-09T06:27:30.853Z,11.57
2023-05-09T06:29:57.482Z,9.93
2023-05-09T06:32:25.059Z,11.45
2023-05-09T06:34:52.627Z,10.18
2023-05-09T06:37:19.240Z,9.73
2023-05-09T06:39:45.787Z,9.77
2023-05-09T06:42:12.375Z,10.88
2023-05-09T06:44:39.604Z,11.70
2023-05-09T06:47:06.393Z,10.45
2023-05-09T06:49:33.753Z,8.77
2023-05-09T06:52:00.392Z,9.38
2023-05-09T06:54:27.238Z,11.40
2023-05-09T06:56:53.900Z,11.07
2023-05-09T06:59:20.652Z,9.07
2023-05-09T07:01:47.200Z,12.20
2023-05-09T07:04:16.997Z,9.82
2023-05-09T07:06:43.483Z,10.90
2023-05-09T07:09:10.081Z,14.43
2023-05-09T07:11:37.405Z,10.23
2023-05-09T07:14:04.193Z,10.60
2023-05-09T07:16:30.881Z,9.95
2023-05-09T07:18:57.395Z,20.38
2023-05-09T07:21:24.623Z,11.35
2023-05-09T07:23:51.223Z,9.15
2023-05-09T07:26:17.778Z,10.52
2023-05-09T07:28:44.298Z,9.73
2023-05-09T07:31:10.979Z,9.30
2023-05-09T07:33:37.537Z,10.52
2023-05-09T07:36:04.193Z,11.15
2023-05-09T07:38:30.698Z,10.70
2023-05-09T07:40:57.237Z,8.48
2023-05-09T07:43:23.718Z,9.13
2023-05-09T07:45:50.373Z,7.03
2023-05-09T07:48:16.870Z,9.70
2023-05-09T07:50:43.470Z,9.18
2023-05-09T07:53:10.404Z,9.20
2023-05-09T07:55:36.963Z,11.48
2023-05-09T07:58:03.533Z,9.15
2023-05-09T08:00:30.229Z,8.82
2023-05-09T08:02:59.674Z,12.32
2023-05-09T08:05:26.483Z,7.90
2023-05-09T08:07:53.047Z,7.20
2023-05-09T08:10:19.603Z,6.60
2023-05-09T08:12:46.117Z,7.03
2023-05-09T08:15:13.052Z,6.28
2023-05-09T08:17:40.130Z,12.43
2023-05-09T08:20:08.325Z,8.52
2023-05-09T08:22:34.989Z,10.32
2023-05-09T08:25:01.974Z,6.95
2023-05-09T08:27:28.533Z,7.03
2023-05-09T08:29:55.184Z,6.55
2023-05-09T08:32:21.678Z,5.82
2023-05-09T08:34:51.576Z,5.18
2023-05-09T08:37:18.162Z,5.40
2023-05-09T08:39:44.675Z,6.95
2023-05-09T08:42:15.781Z,6.53
2023-05-09T08:44:42.410Z,6.70
2023-05-09T08:47:09.325Z,5.55
2023-05-09T08:49:36.301Z,5.22
2023-05-09T08:52:03.436Z,5.90
2023-05-09T08:54:30.320Z,6.38
2023-05-09T08:56:57.800Z,5.70
2023-05-09T08:59:24.900Z,5.95
2023-05-09T09:01:53.409Z,5.25
2023-05-09T09:04:20.199Z,5.65
2023-05-09T09:06:46.883Z,5.68
2023-05-09T09:09:14.671Z,6.25
2023-05-09T09:11:42.682Z,5.38
2023-05-09T09:14:22.825Z,6.13
2023-05-09T09:16:51.116Z,5.60
2023-05-09T09:19:20.229Z,6.03
2023-05-09T09:21:49.775Z,5.80
2023-05-09T09:24:22.229Z,5.50
2023-05-09T09:26:51.033Z,5.70
2023-05-09T09:29:18.768Z,5.53
2023-05-09T09:31:46.979Z,4.65
2023-05-09T09:34:22.375Z,4.40
2023-05-09T09:36:50.391Z,5.40
2023-05-09T09:39:17.016Z,4.88
2023-05-09T09:41:44.848Z,5.20
2023-05-09T09:44:12.641Z,4.18
2023-05-09T09:46:53.247Z,5.47
2023-05-09T09:49:22.312Z,4.10
2023-05-09T09:51:56.748Z,4.57
2023-05-09T09:54:26.756Z,4.50
2023-05-09T09:56:56.435Z,4.60
2023-05-09T09:59:27.823Z,4.60
2023-05-09T10:01:55.523Z,3.08
2023-05-09T10:04:25.272Z,4.35
2023-05-09T10:06:56.858Z,4.55
2023-05-09T10:09:25.110Z,3.83
2023-05-09T10:11:53.648Z,4.90
2023-05-09T10:14:23.316Z,4.18
2023-05-09T10:16:57.329Z,3.97
2023-05-09T10:19:27.181Z,3.78
2023-05-09T10:21:58.742Z,3.75
2023-05-09T10:24:37.665Z,4.65
2023-05-09T10:27:08.697Z,4.38
2023-05-09T10:29:39.394Z,4.07
2023-05-09T10:32:14.042Z,4.15
2023-05-09T10:34:44.484Z,3.92
2023-05-09T10:37:12.580Z,4.90
2023-05-09T10:39:39.514Z,4.50
2023-05-09T10:42:07.577Z,4.70
2023-05-09T10:44:35.041Z,3.88
2023-05-09T10:47:02.137Z,4.30
2023-05-09T10:49:28.828Z,4.70
2023-05-09T10:51:55.329Z,11.35
2023-05-09T10:54:31.050Z,4.30
2023-05-09T10:56:57.990Z,3.90
2023-05-09T10:59:46.525Z,4.40
2023-05-09T11:02:15.619Z,4.95
2023-05-09T11:04:42.259Z,3.58
2023-05-09T11:07:26.196Z,6.20
2023-05-09T11:10:06.832Z,4.38
2023-05-09T11:12:34.093Z,3.83
2023-05-09T11:15:08.039Z,3.80
2023-05-09T11:17:38.521Z,4.38
2023-05-09T11:20:06.480Z,5.10
2023-05-09T11:22:44.979Z,3.95
2023-05-09T11:25:13.784Z,3.45
2023-05-09T11:27:48.640Z,4.05
2023-05-09T11:30:20.116Z,3.75
2023-05-09T11:32:51.399Z,3.90
2023-05-09T11:37:49.537Z,3.75
2023-05-09T11:40:19.147Z,4.15
2023-05-09T11:42:56.191Z,3.40
2023-05-09T11:45:28.199Z,3.88
2023-05-09T11:47:55.064Z,2.90
2023-05-09T11:50:21.685Z,3.55
2023-05-09T11:52:51.588Z,2.80
2023-05-09T11:55:20.329Z,4.53
2023-05-09T11:57:52.262Z,2.47
2023-05-09T12:00:24.007Z,3.67
2023-05-09T12:02:51.799Z,4.55
2023-05-09T12:05:22.890Z,3.15
2023-05-09T12:07:50.056Z,2.63
2023-05-09T12:10:20.476Z,3.25
2023-05-09T12:12:52.801Z,2.80
2023-05-09T12:15:21.461Z,3.20
2023-05-09T12:18:01.356Z,3.13
2023-05-09T12:20:28.656Z,3.10
2023-05-09T12:22:55.839Z,3.63
2023-05-09T12:25:22.698Z,3.67
2023-05-09T12:27:49.220Z,3.28
2023-05-09T12:30:16.329Z,3.40
2023-05-09T12:32:43.633Z,3.30
2023-05-09T12:35:12.073Z,3.28
2023-05-09T12:37:39.168Z,4.70
2023-05-09T12:40:12.455Z,3.60
2023-05-09T12:42:40.012Z,4.03
2023-05-09T12:45:11.190Z,4.13
2023-05-09T12:47:39.049Z,3.15
2023-05-09T12:50:06.973Z,4.05
2023-05-09T12:52:35.359Z,3.88
2023-05-09T12:55:15.216Z,3.63
2023-05-09T12:57:43.970Z,3.92
2023-05-09T13:00:12.070Z,3.60
2023-05-09T13:02:42.345Z,3.05
2023-05-09T13:05:16.012Z,3.60
2023-05-09T13:07:47.736Z,4.03
2023-05-09T13:10:15.344Z,3.20
2023-05-09T13:12:48.265Z,3.25
2023-05-09T13:15:22.514Z,3.60
2023-05-09T13:17:51.081Z,2.88
2023-05-09T13:20:18.838Z,3.42
2023-05-09T13:22:46.332Z,3.60
2023-05-09T13:25:13.567Z,3.08
2023-05-09T13:27:40.308Z,3.40
2023-05-09T13:30:07.774Z,3.28
2023-05-09T13:32:35.110Z,2.83
2023-05-09T13:35:01.836Z,3.47
2023-05-09T13:37:28.581Z,2.95
2023-05-09T13:39:55.504Z,3.22
2023-05-09T13:42:22.107Z,2.83
2023-05-09T13:44:48.751Z,3.05
2023-05-09T13:47:15.655Z,3.72
2023-05-09T13:49:42.121Z,3.47
2023-05-09T13:52:08.988Z,3.03
2023-05-09T13:54:35.680Z,3.38
2023-05-09T13:57:05.922Z,3.22
2023-05-09T13:59:34.697Z,2.80
2023-05-09T14:02:01.693Z,3.28
2023-05-09T14:04:29.709Z,2.45
2023-05-09T14:06:56.356Z,3.00
2023-05-09T14:09:23.217Z,2.58
2023-05-09T14:11:51.527Z,2.72
2023-05-09T14:14:21.924Z,3.83
2023-05-09T14:16:49.310Z,2.30
2023-05-09T14:19:16.886Z,2.95
2023-05-09T14:21:44.719Z,3.03
2023-05-09T14:24:14.340Z,2.97
2023-05-09T14:26:42.515Z,3.58
2023-05-09T14:29:09.301Z,3.10
2023-05-09T14:31:36.062Z,3.45
2023-05-09T14:34:06.166Z,2.53
2023-05-09T14:36:33.077Z,3.05
2023-05-09T14:38:59.613Z,2.85
2023-05-09T14:41:26.773Z,2.75
2023-05-09T14:43:53.426Z,3.85
2023-05-09T14:46:20.208Z,2.63
2023-05-09T14:48:46.909Z,4.07
2023-05-09T14:51:14.200Z,3.30
2023-05-09T14:53:44.060Z,3.08
2023-05-09T14:56:13.382Z,2.55
2023-05-09T14:58:39.946Z,2.75
2023-05-09T15:01:06.648Z,2.95
2023-05-09T15:03:33.190Z,2.83
2023-05-09T15:05:59.824Z,2.63
2023-05-09T15:08:27.022Z,3.58
2023-05-09T15:10:56.402Z,2.92
2023-05-09T15:13:23.415Z,3.25
2023-05-09T15:15:49.962Z,2.67
2023-05-09T15:18:18.332Z,3.17
2023-05-09T15:20:44.946Z,2.85
2023-05-09T15:23:13.108Z,2.95
2023-05-09T15:25:42.984Z,3.15
2023-05-09T15:28:09.473Z,4.13
2023-05-09T15:30:38.306Z,2.88
2023-05-09T15:33:05.297Z,3.92
2023-05-09T15:35:31.900Z,2.60
2023-05-09T15:37:58.721Z,3.83
2023-05-09T15:40:25.608Z,3.50
2023-05-09T15:42:52.226Z,2.92
2023-05-09T15:45:18.807Z,3.20
2023-05-09T15:47:45.532Z,3.60
2023-05-09T15:50:12.881Z,4.88
2023-05-09T15:52:39.727Z,4.15
2023-05-09T15:55:07.167Z,2.90
2023-05-09T15:57:35.162Z,3.17
2023-05-09T16:00:01.732Z,3.47
2023-05-09T16:02:39.058Z,3.30
2023-05-09T16:05:06.209Z,3.40
2023-05-09T16:07:34.665Z,7.53
2023-05-09T16:10:02.193Z,3.35
2023-05-09T16:12:28.800Z,14.80
2023-05-09T16:14:55.441Z,9.50
2023-05-09T16:17:21.936Z,5.32
2023-05-09T16:19:48.735Z,2.78
2023-05-09T16:22:15.220Z,3.47
2023-05-09T16:24:41.957Z,3.42
2023-05-09T16:27:08.532Z,6.40
2023-05-09T16:29:35.114Z,3.08
2023-05-09T16:32:04.127Z,3.08
2023-05-09T16:34:30.797Z,3.97
2023-05-09T16:36:57.379Z,3.28
2023-05-09T16:39:23.995Z,3.85
2023-05-09T16:41:50.524Z,3.00
2023-05-09T16:44:17.257Z,3.33
2023-05-09T16:46:43.785Z,3.10
2023-05-09T16:49:11.089Z,3.45
2023-05-09T16:51:37.673Z,3.10
2023-05-09T16:54:04.261Z,3.10
2023-05-09T16:56:30.859Z,3.08
2023-05-09T16:58:57.397Z,9.02
2023-05-09T17:01:23.946Z,7.07
2023-05-09T17:03:51.143Z,6.30
2023-05-09T17:06:18.455Z,3.05
2023-05-09T17:08:46.155Z,4.57
2023-05-09T17:11:15.488Z,3.20
2023-05-09T17:13:44.734Z,3.22
2023-05-09T17:16:11.276Z,2.72
2023-05-09T17:18:38.490Z,3.42
2023-05-09T17:21:05.440Z,3.13
2023-05-09T17:23:32.434Z,3.78
2023-05-09T17:25:59.134Z,3.15
2023-05-09T17:28:25.696Z,2.83
2023-05-09T17:30:52.491Z,3.05
2023-05-09T17:33:19.337Z,3.20
2023-05-09T17:35:49.413Z,3.22
2023-05-09T17:38:16.145Z,3.30
2023-05-09T17:40:43.369Z,4.38
2023-05-09T17:43:10.577Z,3.78
2023-05-09T17:45:38.009Z,3.28
2023-05-09T17:48:04.859Z,3.05
2023-05-09T17:50:32.942Z,3.33
2023-05-09T17:52:59.547Z,3.42
2023-05-09T17:55:26.191Z,3.28
2023-05-09T17:57:52.873Z,4.32
2023-05-09T18:00:19.708Z,3.17
2023-05-09T18:02:48.103Z,3.38
2023-05-09T18:05:16.503Z,3.13
2023-05-09T18:07:43.740Z,3.88
2023-05-09T18:10:10.868Z,3.63
2023-05-09T18:12:37.567Z,3.47
2023-05-09T18:15:05.937Z,3.60
2023-05-09T18:17:37.840Z,3.92
2023-05-09T18:22:19.360Z,3.78
2023-05-09T18:24:46.193Z,4.28
2023-05-09T18:27:12.814Z,3.60
2023-05-09T18:29:39.628Z,3.58
2023-05-09T18:32:06.897Z,4.00
2023-05-09T18:34:33.841Z,4.05
2023-05-09T18:37:00.352Z,5.10
2023-05-09T18:39:27.545Z,4.18
2023-05-09T18:41:54.292Z,5.15
2023-05-09T18:44:20.878Z,4.68
2023-05-09T18:46:47.429Z,4.38
2023-05-09T18:49:18.541Z,5.05
2023-05-09T18:51:45.327Z,4.93
2023-05-09T18:54:14.757Z,4.70
2023-05-09T18:59:16.466Z,6.22
2023-05-09T19:01:46.024Z,6.95
2023-05-09T19:04:14.037Z,5.57
2023-05-09T19:06:42.178Z,5.00
2023-05-09T19:09:08.839Z,6.00
2023-05-09T19:11:35.875Z,5.65
2023-05-09T19:14:05.270Z,8.18
2023-05-09T19:16:32.197Z,7.63
2023-05-09T19:19:10.285Z,5.82
2023-05-09T19:21:41.707Z,6.55
2023-05-09T19:24:09.329Z,6.03
2023-05-09T19:26:35.953Z,7.43
2023-05-09T19:29:10.086Z,6.18
2023-05-09T19:31:37.463Z,7.18
2023-05-09T19:34:04.083Z,6.72
2023-05-09T19:36:34.108Z,35.83
2023-05-09T19:39:00.680Z,434.20
2023-05-09T19:41:27.296Z,440.60
2023-05-09T19:43:58.001Z,121.60
2023-05-09T19:46:26.767Z,399.63
2023-05-09T19:48:58.295Z,407.63
2023-05-09T19:51:25.126Z,324.23
2023-05-09T19:53:59.293Z,274.67
2023-05-09T19:56:26.043Z,257.08
2023-05-09T19:58:54.891Z,364.70
2023-05-09T20:01:26.126Z,241.52
2023-05-09T20:03:53.696Z,254.02
2023-05-09T20:06:20.843Z,194.65
2023-05-09T20:08:47.653Z,205.25
2023-05-09T20:11:15.181Z,197.40
2023-05-09T20:13:43.095Z,342.35
2023-05-09T20:16:12.897Z,279.08
2023-05-09T20:18:39.667Z,323.85
2023-05-09T20:21:09.711Z,32.17
2023-05-09T20:23:37.061Z,187.07
2023-05-09T20:26:03.864Z,231.45
2023-05-09T20:28:31.933Z,130.68
2023-05-09T20:30:58.495Z,142.10
2023-05-09T20:33:25.049Z,126.93
2023-05-09T20:35:51.536Z,137.95
2023-05-09T20:38:18.106Z,18.58
2023-05-09T20:40:45.914Z,172.38
2023-05-09T20:43:12.547Z,158.88
2023-05-09T20:45:39.194Z,172.25
2023-05-09T20:48:06.644Z,129.40
2023-05-09T20:50:35.725Z,102.90
2023-05-09T20:53:04.501Z,103.40
2023-05-09T20:55:30.994Z,172.27
2023-05-09T20:57:57.916Z,199.35
2023-05-09T21:00:24.612Z,86.80
2023-05-09T21:02:51.271Z,249.73
2023-05-09T21:05:17.788Z,132.35
2023-05-09T21:07:44.404Z,124.35
2023-05-09T21:10:11.351Z,81.32
2023-05-09T21:12:37.965Z,117.30
2023-05-09T21:15:05.208Z,106.47
2023-05-09T21:17:32.065Z,79.40
2023-05-09T21:19:58.973Z,119.68
2023-05-09T21:22:25.697Z,40.92
2023-05-09T21:24:52.717Z,13.50
2023-05-09T21:27:19.540Z,49.55
2023-05-09T21:29:49.264Z,20.67
2023-05-09T21:32:16.950Z,11.48
2023-05-09T21:34:43.502Z,67.65
2023-05-09T21:37:10.153Z,11.45
2023-05-09T21:39:36.661Z,10.52
2023-05-09T21:42:03.345Z,11.60
2023-05-09T21:44:29.937Z,8.13
2023-05-09T21:46:56.717Z,11.95
2023-05-09T21:49:27.185Z,8.45
2023-05-09T21:51:54.027Z,9.02
2023-05-09T21:54:20.947Z,10.63
2023-05-09T21:56:47.582Z,8.70
2023-05-09T21:59:14.197Z,8.63
2023-05-09T22:01:41.773Z,9.65
2023-05-09T22:06:34.953Z,88.35
2023-05-09T22:09:01.737Z,46.20
2023-05-09T22:11:28.246Z,56.33
2023-05-09T22:13:55.403Z,76.60
2023-05-09T22:16:22.425Z,34.38
2023-05-09T22:18:49.368Z,24.33
2023-05-09T22:21:16.084Z,36.92
2023-05-09T22:23:43.704Z,48.10
2023-05-09T22:26:10.354Z,34.83
2023-05-09T22:28:37.097Z,44.83
2023-05-09T22:31:06.677Z,41.35
2023-05-09T22:33:34.200Z,74.03
2023-05-09T22:36:01.159Z,58.00
2023-05-09T22:38:27.775Z,34.25
2023-05-09T22:40:54.283Z,100.53
2023-05-09T22:43:21.570Z,60.85
2023-05-09T22:45:48.146Z,167.70
2023-05-09T22:48:15.645Z,51.78
2023-05-09T22:50:42.261Z,100.95
2023-05-09T22:53:09.242Z,298.77
2023-05-09T22:55:36.480Z,88.10
2023-05-09T22:58:03.810Z,151.48
2023-05-09T23:00:30.578Z,286.67
2023-05-09T23:02:59.241Z,85.30
2023-05-09T23:05:25.983Z,31.38
2023-05-09T23:07:52.689Z,137.00
2023-05-09T23:10:19.323Z,122.97
2023-05-09T23:12:45.950Z,126.45
2023-05-09T23:15:12.592Z,43.83
2023-05-09T23:17:39.137Z,73.50
2023-05-09T23:20:06.337Z,66.88
2023-05-09T23:22:34.598Z,123.95
2023-05-09T23:25:01.174Z,105.18
2023-05-09T23:27:28.390Z,251.95
2023-05-09T23:29:55.258Z,305.08
2023-05-09T23:32:21.986Z,120.85
2023-05-09T23:34:48.621Z,448.98
2023-05-09T23:37:15.262Z,289.20
2023-05-09T23:39:41.808Z,401.48
2023-05-09T23:42:08.503Z,265.13
2023-05-09T23:44:35.281Z,550.97
2023-05-09T23:47:02.475Z,487.85
2023-05-09T23:49:29.205Z,521.17
2023-05-09T23:51:55.906Z,430.88
2023-05-09T23:54:24.271Z,155.70
2023-05-09T23:56:50.929Z,97.20
2023-05-09T23:59:17.619Z,276.25
